createdAt,value
2024-01-15T00:00:12.878Z,9.27
2024-01-15T00:02:39.646Z,9.35
2024-01-15T00:05:06.538Z,8.38
2024-01-15T00:07:33.262Z,8.48
2024-01-15T00:09:59.938Z,7.38
2024-01-15T00:12:26.672Z,7.95
2024-01-15T00:14:53.400Z,8.55
2024-01-15T00:17:20.146Z,8.80
2024-01-15T00:19:47.000Z,8.82
2024-01-15T00:22:13.731Z,8.95
2024-01-15T00:24:40.540Z,9.05
2024-01-15T00:27:07.405Z,10.75
2024-01-15T00:29:34.117Z,12.68
2024-01-15T00:32:00.835Z,13.25
2024-01-15T00:34:27.697Z,13.57
2024-01-15T00:36:55.077Z,13.63
2024-01-15T00:39:21.820Z,14.15
2024-01-15T00:41:48.553Z,15.45
2024-01-15T00:44:15.259Z,14.10
2024-01-15T00:46:46.827Z,15.23
2024-01-15T00:49:14.807Z,14.27
2024-01-15T00:51:42.096Z,13.38
2024-01-15T00:54:09.428Z,12.52
2024-01-15T00:56:36.312Z,13.27
2024-01-15T00:59:03.159Z,13.98
2024-01-15T01:01:29.912Z,17.38
2024-01-15T01:03:57.264Z,16.27
2024-01-15T01:06:24.101Z,18.63
2024-01-15T01:08:50.855Z,17.77
2024-01-15T01:11:17.617Z,17.50
2024-01-15T01:13:44.477Z,17.05
2024-01-15T01:16:11.217Z,18.60
2024-01-15T01:18:38.179Z,16.42
2024-01-15T01:21:05.155Z,17.52
2024-01-15T01:23:31.939Z,17.25
2024-01-15T01:25:58.705Z,16.30
2024-01-15T01:28:25.430Z,15.70
2024-01-15T01:30:52.350Z,15.77
2024-01-15T01:33:19.360Z,15.27
2024-01-15T01:35:46.643Z,16.67
2024-01-15T01:38:13.806Z,15.23
2024-01-15T01:40:40.522Z,16.27
2024-01-15T01:43:07.374Z,14.65
2024-01-15T01:45:34.223Z,16.08
2024-01-15T01:48:02.186Z,12.45
2024-01-15T01:50:30.895Z,15.30
2024-01-15T01:52:57.588Z,14.45
2024-01-15T01:55:25.955Z,15.73
2024-01-15T01:57:52.882Z,13.90
2024-01-15T02:00:19.738Z,16.05
2024-01-15T02:02:46.570Z,15.75
2024-01-15T02:05:14.486Z,17.67
2024-01-15T02:07:42.224Z,18.88
2024-01-15T02:10:09.203Z,15.38
2024-01-15T02:12:36.570Z,17.55
2024-01-15T02:15:03.572Z,14.13
2024-01-15T02:17:30.356Z,12.18
2024-01-15T02:19:57.255Z,14.32
2024-01-15T02:22:23.987Z,17.75
2024-01-15T02:24:50.753Z,17.13
2024-01-15T02:27:18.024Z,14.98
2024-01-15T02:29:44.758Z,13.57
2024-01-15T02:32:11.518Z,16.90
2024-01-15T02:34:38.356Z,15.70
2024-01-15T02:37:05.441Z,17.42
2024-01-15T02:39:32.278Z,17.27
2024-01-15T02:41:59.019Z,16.63
2024-01-15T02:44:25.803Z,16.67
2024-01-15T02:46:52.459Z,15.77
2024-01-15T02:49:19.428Z,17.55
2024-01-15T02:51:46.475Z,15.95
2024-01-15T02:54:13.370Z,16.92
2024-01-15T02:56:40.043Z,16.13
2024-01-15T02:59:06.800Z,14.68
2024-01-15T03:01:33.555Z,15.63
2024-01-15T03:04:00.494Z,15.70
2024-01-15T03:06:27.297Z,15.93
2024-01-15T03:08:53.996Z,15.93
2024-01-15T03:11:20.671Z,17.58
2024-01-15T03:13:47.392Z,16.60
2024-01-15T03:16:14.118Z,17.73
2024-01-15T03:18:41.000Z,17.88
2024-01-15T03:21:07.781Z,17.25
2024-01-15T03:23:34.576Z,14.85
2024-01-15T03:26:01.511Z,13.98
2024-01-15T03:28:28.196Z,13.88
2024-01-15T03:30:54.940Z,13.80
2024-01-15T03:33:22.469Z,13.80
2024-01-15T03:35:49.267Z,14.18
2024-01-15T03:38:15.942Z,15.40
2024-01-15T03:40:42.895Z,14.02
2024-01-15T03:43:09.802Z,14.90
2024-01-15T03:45:36.591Z,13.85
2024-01-15T03:48:03.443Z,14.80
2024-01-15T03:50:30.244Z,14.63
2024-01-15T03:52:56.951Z,13.05
2024-01-15T03:55:23.616Z,12.27
2024-01-15T03:57:50.376Z,11.95
2024-01-15T04:00:18.952Z,11.38
2024-01-15T04:02:45.762Z,10.90
2024-01-15T04:05:12.524Z,13.35
2024-01-15T04:07:39.214Z,13.27
2024-01-15T04:10:07.031Z,13.05
2024-01-15T04:12:33.761Z,13.52
2024-01-15T04:15:00.486Z,12.82
2024-01-15T04:17:28.259Z,12.40
2024-01-15T04:19:55.000Z,12.73
2024-01-15T04:22:21.778Z,12.77
2024-01-15T04:24:48.536Z,12.23
2024-01-15T04:27:15.426Z,12.63
2024-01-15T04:29:42.297Z,12.57
2024-01-15T04:32:09.053Z,12.85
2024-01-15T04:34:36.010Z,11.85
2024-01-15T04:37:03.145Z,11.60
2024-01-15T04:39:30.383Z,12.25
2024-01-15T04:41:57.154Z,13.10
2024-01-15T04:44:24.063Z,13.43
2024-01-15T04:46:50.758Z,13.38
2024-01-15T04:49:17.602Z,12.77
2024-01-15T04:51:44.387Z,10.23
2024-01-15T04:54:11.311Z,12.55
2024-01-15T04:56:38.330Z,11.90
2024-01-15T04:59:05.090Z,10.93
2024-01-15T05:01:35.138Z,11.45
2024-01-15T05:04:02.207Z,12.00
2024-01-15T05:06:29.407Z,13.25
2024-01-15T05:08:56.122Z,12.80
2024-01-15T05:11:22.938Z,15.77
2024-01-15T05:13:49.666Z,17.33
2024-01-15T05:16:16.308Z,20.58
2024-01-15T05:18:44.653Z,21.13
2024-01-15T05:21:11.490Z,20.77
2024-01-15T05:23:38.293Z,23.85
2024-01-15T05:26:05.264Z,27.42
2024-01-15T05:28:32.002Z,25.60
2024-01-15T05:30:58.776Z,25.60
2024-01-15T05:33:25.734Z,24.00
2024-01-15T05:35:52.553Z,22.48
2024-01-15T05:38:19.232Z,25.02
2024-01-15T05:40:45.968Z,26.70
2024-01-15T05:43:12.639Z,26.63
2024-01-15T05:45:45.061Z,28.15
2024-01-15T05:48:12.692Z,25.23
2024-01-15T05:50:39.822Z,25.48
2024-01-15T05:53:06.524Z,24.33
2024-01-15T05:55:33.184Z,22.33
2024-01-15T05:57:59.891Z,21.92
2024-01-15T06:00:26.825Z,22.52
2024-01-15T06:02:53.866Z,24.77
2024-01-15T06:05:20.624Z,23.42
2024-01-15T06:07:47.334Z,21.42
2024-01-15T06:10:14.043Z,21.88
2024-01-15T06:12:40.765Z,25.98
2024-01-15T06:15:07.701Z,21.73
2024-01-15T06:17:34.614Z,21.48
2024-01-15T06:20:01.443Z,19.80
2024-01-15T06:22:28.219Z,19.80
2024-01-15T06:24:55.061Z,21.70
2024-01-15T06:27:21.813Z,25.98
2024-01-15T06:29:50.687Z,25.10
2024-01-15T06:32:18.076Z,25.42
2024-01-15T06:34:44.926Z,26.73
2024-01-15T06:37:11.782Z,22.88
2024-01-15T06:39:38.529Z,26.30
2024-01-15T06:42:05.580Z,21.77
2024-01-15T06:44:32.306Z,22.05
2024-01-15T06:47:03.564Z,21.70
2024-01-15T06:49:30.901Z,16.38
2024-01-15T06:51:58.086Z,19.92
2024-01-15T06:54:25.039Z,21.15
2024-01-15T06:56:51.874Z,23.30
2024-01-15T06:59:20.382Z,19.48
2024-01-15T07:01:47.788Z,19.90
2024-01-15T07:04:14.662Z,24.40
2024-01-15T07:06:41.488Z,27.10
2024-01-15T07:09:09.421Z,27.85
2024-01-15T07:11:36.389Z,29.50
2024-01-15T07:14:03.123Z,25.75
2024-01-15T07:16:37.007Z,27.05
2024-01-15T07:19:05.778Z,26.15
2024-01-15T07:21:32.803Z,27.63
2024-01-15T07:23:59.619Z,25.67
2024-01-15T07:26:26.617Z,33.25
2024-01-15T07:28:53.554Z,36.33
2024-01-15T07:31:20.535Z,35.47
2024-01-15T07:33:48.068Z,36.60
2024-01-15T07:36:15.863Z,32.92
2024-01-15T07:38:42.549Z,29.58
2024-01-15T07:41:09.410Z,28.67
2024-01-15T07:43:37.245Z,28.73
2024-01-15T07:46:04.352Z,29.02
2024-01-15T07:48:31.244Z,20.85
2024-01-15T07:50:58.035Z,22.52
2024-01-15T07:53:24.842Z,25.38
2024-01-15T07:55:51.550Z,21.80
2024-01-15T07:58:18.330Z,23.23
2024-01-15T08:00:45.826Z,23.90
2024-01-15T08:03:14.275Z,24.02
2024-01-15T08:05:41.158Z,22.75
2024-01-15T08:08:07.863Z,24.45
2024-01-15T08:10:34.608Z,22.30
2024-01-15T08:13:01.367Z,22.73
2024-01-15T08:15:31.123Z,26.05
2024-01-15T08:17:58.827Z,25.85
2024-01-15T08:20:25.923Z,25.38
2024-01-15T08:22:52.740Z,28.50
2024-01-15T08:25:19.504Z,23.30
2024-01-15T08:27:46.352Z,24.83
2024-01-15T08:30:13.704Z,27.52
2024-01-15T08:32:43.564Z,30.77
2024-01-15T08:35:10.907Z,30.98
2024-01-15T08:37:39.161Z,29.48
2024-01-15T08:40:06.261Z,27.52
2024-01-15T08:42:32.997Z,28.50
2024-01-15T08:44:59.749Z,37.63
2024-01-15T08:47:27.237Z,33.95
2024-01-15T08:49:54.329Z,32.15
2024-01-15T08:52:22.290Z,31.52
2024-01-15T08:54:49.396Z,29.38
2024-01-15T08:57:16.200Z,29.88
2024-01-15T08:59:43.251Z,31.60
2024-01-15T09:02:09.927Z,31.20
2024-01-15T09:04:36.724Z,29.85
2024-01-15T09:07:03.585Z,29.98
2024-01-15T09:09:30.492Z,29.40
2024-01-15T09:11:57.373Z,30.27
2024-01-15T09:14:33.348Z,29.02
2024-01-15T09:17:05.972Z,31.02
2024-01-15T09:19:33.037Z,30.95
2024-01-15T09:21:59.866Z,27.38
2024-01-15T09:24:28.232Z,24.45
2024-01-15T09:29:22.317Z,19.73
2024-01-15T09:31:49.278Z,16.38
2024-01-15T09:34:16.202Z,15.25
2024-01-15T09:36:43.733Z,14.13
2024-01-15T09:39:12.366Z,15.10
2024-01-15T09:41:39.523Z,15.38
2024-01-15T09:44:06.509Z,15.25
2024-01-15T09:46:34.129Z,16.00
2024-01-15T09:49:02.023Z,17.88
2024-01-15T09:51:32.640Z,17.58
2024-01-15T09:53:59.620Z,19.55
2024-01-15T09:56:26.319Z,18.05
2024-01-15T09:58:54.151Z,15.70
2024-01-15T10:01:24.661Z,17.85
2024-01-15T10:03:52.046Z,14.25
2024-01-15T10:06:22.520Z,13.27
2024-01-15T10:08:51.744Z,10.98
2024-01-15T10:11:18.603Z,10.35
2024-01-15T10:13:46.584Z,11.02
2024-01-15T10:16:14.024Z,12.50
2024-01-15T10:18:41.248Z,13.02
2024-01-15T10:21:08.547Z,16.05
2024-01-15T10:23:35.381Z,13.20
2024-01-15T10:26:02.237Z,14.77
2024-01-15T10:28:30.782Z,13.10
2024-01-15T10:31:00.406Z,12.15
2024-01-15T10:33:27.791Z,13.85
2024-01-15T10:35:56.378Z,13.98
2024-01-15T10:38:23.970Z,11.13
2024-01-15T10:40:57.794Z,13.75
2024-01-15T10:43:28.160Z,8.02
2024-01-15T10:45:56.421Z,8.27
2024-01-15T10:48:23.380Z,8.43
2024-01-15T10:50:50.132Z,7.35
2024-01-15T10:53:18.658Z,8.43
2024-01-15T10:55:46.234Z,9.00
2024-01-15T10:58:13.938Z,9.52
2024-01-15T11:00:40.756Z,9.90
2024-01-15T11:03:07.987Z,10.98
2024-01-15T11:05:44.636Z,10.00
2024-01-15T11:08:14.948Z,8.90
2024-01-15T11:10:43.986Z,9.40
2024-01-15T11:13:14.991Z,7.18
2024-01-15T11:16:05.246Z,7.72
2024-01-15T11:18:42.651Z,6.88
2024-01-15T11:21:18.566Z,6.82
2024-01-15T11:23:52.604Z,7.55
2024-01-15T11:26:39.269Z,7.47
2024-01-15T11:29:11.589Z,7.47
2024-01-15T11:31:41.694Z,7.20
2024-01-15T11:34:09.924Z,7.15
2024-01-15T11:36:55.126Z,10.48
2024-01-15T11:39:28.108Z,8.10
2024-01-15T11:41:58.733Z,7.30
2024-01-15T11:44:25.520Z,6.60
2024-01-15T11:47:06.213Z,6.93
2024-01-15T11:49:41.994Z,7.47
2024-01-15T11:52:12.601Z,8.38
2024-01-15T11:54:39.921Z,8.20
2024-01-15T11:57:11.604Z,9.02
2024-01-15T11:59:38.412Z,7.78
2024-01-15T12:02:05.283Z,7.97
2024-01-15T12:04:31.970Z,6.07
2024-01-15T12:06:58.745Z,7.25
2024-01-15T12:09:25.591Z,6.22
2024-01-15T12:11:56.690Z,9.00
2024-01-15T12:14:23.672Z,6.53
2024-01-15T12:16:50.781Z,7.85
2024-01-15T12:19:17.654Z,6.68
2024-01-15T12:21:44.408Z,6.97
2024-01-15T12:24:11.269Z,7.05
2024-01-15T12:26:38.047Z,7.13
2024-01-15T12:29:07.934Z,6.68
2024-01-15T12:31:34.814Z,6.68
2024-01-15T12:34:03.162Z,6.82
2024-01-15T12:36:32.726Z,7.72
2024-01-15T12:39:02.152Z,8.30
2024-01-15T12:41:28.898Z,7.97
2024-01-15T12:43:55.578Z,7.80
2024-01-15T12:46:22.235Z,9.38
2024-01-15T12:48:49.203Z,9.25
2024-01-15T12:51:16.737Z,6.63
2024-01-15T12:53:43.562Z,7.50
2024-01-15T12:56:10.214Z,8.15
2024-01-15T12:58:36.924Z,7.07
2024-01-15T13:01:03.964Z,7.93
2024-01-15T13:03:30.924Z,7.57
2024-01-15T13:05:57.773Z,9.07
2024-01-15T13:08:26.592Z,8.75
2024-01-15T13:10:57.262Z,11.40
2024-01-15T13:13:24.245Z,9.88
2024-01-15T13:15:51.170Z,8.95
2024-01-15T13:18:18.112Z,10.80
2024-01-15T13:20:44.816Z,11.48
2024-01-15T13:23:12.718Z,10.07
2024-01-15T13:25:39.757Z,10.27
2024-01-15T13:28:08.025Z,8.98
2024-01-15T13:30:35.135Z,8.93
2024-01-15T13:33:05.990Z,9.98
2024-01-15T13:35:32.926Z,10.20
2024-01-15T13:37:59.725Z,9.88
2024-01-15T13:40:26.413Z,10.38
2024-01-15T13:42:54.065Z,10.25
2024-01-15T13:45:39.547Z,10.57
2024-01-15T13:48:06.916Z,10.00
2024-01-15T13:50:33.652Z,11.05
2024-01-15T13:53:00.340Z,12.60
2024-01-15T13:55:27.101Z,12.73
2024-01-15T13:57:53.817Z,15.20
2024-01-15T14:00:21.351Z,13.32
2024-01-15T14:02:49.034Z,11.27
2024-01-15T14:05:15.872Z,10.45
2024-01-15T14:07:45.367Z,10.02
2024-01-15T14:10:12.171Z,9.52
2024-01-15T14:12:38.987Z,9.32
2024-01-15T14:15:06.867Z,7.80
2024-01-15T14:17:33.851Z,8.95
2024-01-15T14:20:00.710Z,8.20
2024-01-15T14:22:27.578Z,9.98
2024-01-15T14:24:55.424Z,7.45
2024-01-15T14:27:22.886Z,9.35
2024-01-15T14:29:49.625Z,12.63
2024-01-15T14:32:16.395Z,10.85
2024-01-15T14:34:43.168Z,14.68
2024-01-15T14:37:10.080Z,12.73
2024-01-15T14:39:37.172Z,11.98
2024-01-15T14:44:48.451Z,13.95
2024-01-15T14:47:15.126Z,15.88
2024-01-15T14:49:41.916Z,15.15
2024-01-15T14:52:08.954Z,12.57
2024-01-15T14:54:36.176Z,14.32
2024-01-15T14:57:02.899Z,12.35
2024-01-15T14:59:30.955Z,12.18
2024-01-15T15:01:58.281Z,13.20
2024-01-15T15:04:25.149Z,12.23
2024-01-15T15:06:51.938Z,11.18
2024-01-15T15:09:18.796Z,10.23
2024-01-15T15:11:45.506Z,6.95
2024-01-15T15:14:12.214Z,7.78
2024-01-15T15:16:38.917Z,10.30
2024-01-15T15:19:05.841Z,7.72
2024-01-15T15:21:32.614Z,9.25
2024-01-15T15:23:59.586Z,10.50
2024-01-15T15:26:26.472Z,12.27
2024-01-15T15:28:53.190Z,16.70
2024-01-15T15:31:19.869Z,16.33
2024-01-15T15:33:46.766Z,18.38
2024-01-15T15:36:13.571Z,19.05
2024-01-15T15:38:40.325Z,15.07
2024-01-15T15:41:07.101Z,15.73
2024-01-15T15:43:33.862Z,15.55
2024-01-15T15:46:02.411Z,16.83
2024-01-15T15:48:29.440Z,33.15
2024-01-15T15:51:01.151Z,16.67
2024-01-15T15:53:28.057Z,15.10
2024-01-15T15:55:54.871Z,16.05
2024-01-15T15:58:21.814Z,17.13
2024-01-15T16:00:48.645Z,14.60
2024-01-15T16:03:15.628Z,14.82
2024-01-15T16:05:49.626Z,11.55
2024-01-15T16:08:19.796Z,10.73
2024-01-15T16:10:47.712Z,12.55
2024-01-15T16:13:15.171Z,17.83
2024-01-15T16:15:42.076Z,11.95
2024-01-15T16:23:19.008Z,12.43
2024-01-15T16:23:33.425Z,10.18
2024-01-15T16:24:08.103Z,10.57
2024-01-15T16:26:29.276Z,10.50
2024-01-15T16:28:58.018Z,9.77
2024-01-15T16:31:25.641Z,9.43
2024-01-15T16:33:55.589Z,9.18
2024-01-15T16:36:26.299Z,9.63
2024-01-15T16:38:53.461Z,9.10
2024-01-15T16:41:20.237Z,11.30
2024-01-15T16:43:47.700Z,17.40
2024-01-15T16:46:14.413Z,14.80
2024-01-15T16:48:41.289Z,14.68
2024-01-15T16:51:08.171Z,19.40
2024-01-15T16:53:35.016Z,12.73
2024-01-15T16:56:01.892Z,18.17
2024-01-15T16:58:28.666Z,16.65
2024-01-15T17:00:55.360Z,16.23
2024-01-15T17:03:22.103Z,13.05
2024-01-15T17:05:48.957Z,13.20
2024-01-15T17:08:15.742Z,12.77
2024-01-15T17:10:42.520Z,12.27
2024-01-15T17:13:10.245Z,8.95
2024-01-15T17:15:38.219Z,15.10
2024-01-15T17:18:05.413Z,10.18
2024-01-15T17:20:32.373Z,10.50
2024-01-15T17:22:59.440Z,8.98
2024-01-15T17:25:26.186Z,11.30
2024-01-15T17:27:53.091Z,10.70
2024-01-15T17:30:19.906Z,16.55
2024-01-15T17:32:46.671Z,10.02
2024-01-15T17:35:13.444Z,9.75
2024-01-15T17:37:40.539Z,9.38
2024-01-15T17:40:08.020Z,11.38
2024-01-15T17:42:34.725Z,11.75
2024-01-15T17:45:01.494Z,7.45
2024-01-15T17:47:28.241Z,8.80
2024-01-15T17:49:55.371Z,6.88
2024-01-15T17:52:23.448Z,9.13
2024-01-15T17:54:51.635Z,9.15
2024-01-15T17:57:18.305Z,14.63
2024-01-15T17:59:45.287Z,9.25
2024-01-15T18:02:12.664Z,11.70
2024-01-15T18:04:43.890Z,13.82
2024-01-15T18:07:10.575Z,12.50
2024-01-15T18:09:37.287Z,10.70
2024-01-15T18:12:04.325Z,12.93
2024-01-15T18:14:31.266Z,10.15
2024-01-15T18:16:58.329Z,13.73
2024-01-15T18:19:25.108Z,11.10
2024-01-15T18:21:51.935Z,9.70
2024-01-15T18:24:18.635Z,17.45
2024-01-15T18:26:45.331Z,14.20
2024-01-15T18:29:12.063Z,13.00
2024-01-15T18:31:38.810Z,17.38
2024-01-15T18:34:05.546Z,20.25
2024-01-15T18:36:32.256Z,11.00
2024-01-15T18:39:06.798Z,10.25
2024-01-15T18:41:33.968Z,12.35
2024-01-15T18:44:00.825Z,10.63
2024-01-15T18:46:27.641Z,12.38
2024-01-15T18:48:54.812Z,11.98
2024-01-15T18:51:24.803Z,12.32
2024-01-15T18:53:52.093Z,10.45
2024-01-15T18:56:19.027Z,9.95
2024-01-15T18:58:45.826Z,8.98
2024-01-15T19:01:14.558Z,9.75
2024-01-15T19:03:41.401Z,9.50
2024-01-15T19:06:08.172Z,12.23
2024-01-15T19:08:35.135Z,10.40
2024-01-15T19:11:02.261Z,10.68
2024-01-15T19:13:28.986Z,9.32
2024-01-15T19:15:56.766Z,10.48
2024-01-15T19:18:23.609Z,10.05
2024-01-15T19:20:50.461Z,8.93
2024-01-15T19:23:17.156Z,8.20
2024-01-15T19:25:43.982Z,8.82
2024-01-15T19:28:10.673Z,12.15
2024-01-15T19:30:37.399Z,8.23
2024-01-15T19:33:04.687Z,8.55
2024-01-15T19:35:31.616Z,8.88
2024-01-15T19:37:58.429Z,9.02
2024-01-15T19:40:25.145Z,9.55
2024-01-15T19:42:51.846Z,11.15
2024-01-15T19:45:18.605Z,10.93
2024-01-15T19:47:45.409Z,11.73
2024-01-15T19:50:12.460Z,11.50
2024-01-15T19:52:39.279Z,12.90
2024-01-15T19:55:07.131Z,11.60
2024-01-15T19:57:33.775Z,11.68
2024-01-15T20:00:00.874Z,10.55
2024-01-15T20:02:27.623Z,9.68
2024-01-15T20:04:54.350Z,11.25
2024-01-15T20:07:21.082Z,10.30
2024-01-15T20:09:47.770Z,10.60
2024-01-15T20:12:14.440Z,10.05
2024-01-15T20:14:41.130Z,10.90
2024-01-15T20:17:07.942Z,12.52
2024-01-15T20:19:35.281Z,11.73
2024-01-15T20:22:02.102Z,10.63
2024-01-15T20:24:28.808Z,15.27
2024-01-15T20:26:56.576Z,12.90
2024-01-15T20:29:23.303Z,12.23
2024-01-15T20:31:50.762Z,13.02
2024-01-15T20:34:17.846Z,11.80
2024-01-15T20:36:44.642Z,9.63
2024-01-15T20:39:11.360Z,9.30
2024-01-15T20:41:38.233Z,8.88
2024-01-15T20:44:05.288Z,6.50
2024-01-15T20:46:31.952Z,9.10
2024-01-15T20:48:58.869Z,8.48
2024-01-15T20:51:25.653Z,9.02
2024-01-15T20:53:52.406Z,13.45
2024-01-15T20:56:19.164Z,9.80
2024-01-15T20:58:46.045Z,8.35
2024-01-15T21:01:12.851Z,9.75
2024-01-15T21:03:39.821Z,13.05
2024-01-15T21:06:06.907Z,9.55
2024-01-15T21:08:33.985Z,9.02
2024-01-15T21:11:01.158Z,9.38
2024-01-15T21:13:27.949Z,11.15
2024-01-15T21:15:54.649Z,11.63
2024-01-15T21:18:21.555Z,12.90
2024-01-15T21:20:48.835Z,9.35
2024-01-15T21:23:15.756Z,10.20
2024-01-15T21:25:42.738Z,9.63
2024-01-15T21:28:10.885Z,8.73
2024-01-15T21:30:37.702Z,10.45
2024-01-15T21:33:06.319Z,10.30
2024-01-15T21:35:33.777Z,7.55
2024-01-15T21:38:00.911Z,7.88
2024-01-15T21:40:27.752Z,8.90
2024-01-15T21:42:55.568Z,10.85
2024-01-15T21:45:22.377Z,7.65
2024-01-15T21:47:49.281Z,6.55
2024-01-15T21:50:16.239Z,9.00
2024-01-15T21:52:43.123Z,8.05
2024-01-15T21:55:10.953Z,7.72
2024-01-15T21:57:37.812Z,8.27
2024-01-15T22:00:08.509Z,8.50
2024-01-15T22:02:40.920Z,7.47
2024-01-15T22:05:09.697Z,7.28
2024-01-15T22:07:44.042Z,7.07
2024-01-15T22:10:11.333Z,7.00
2024-01-15T22:12:38.037Z,7.15
2024-01-15T22:15:04.984Z,7.45
2024-01-15T22:17:32.168Z,8.38
2024-01-15T22:19:59.008Z,8.75
2024-01-15T22:22:25.783Z,7.68
2024-01-15T22:24:52.489Z,6.90
2024-01-15T22:27:19.186Z,8.20
2024-01-15T22:29:48.366Z,8.52
2024-01-15T22:32:15.205Z,6.40
2024-01-15T22:34:41.940Z,5.55
2024-01-15T22:37:08.591Z,5.38
2024-01-15T22:39:35.343Z,6.00
2024-01-15T22:42:02.060Z,6.47
2024-01-15T22:44:29.010Z,6.95
2024-01-15T22:46:55.752Z,5.43
2024-01-15T22:49:23.378Z,4.40
2024-01-15T22:51:50.190Z,6.30
2024-01-15T22:54:16.885Z,9.25
2024-01-15T22:56:43.625Z,6.25
2024-01-15T22:59:10.434Z,5.72
2024-01-15T23:01:37.225Z,5.82
2024-01-15T23:04:05.900Z,6.78
2024-01-15T23:06:32.594Z,5.60
2024-01-15T23:08:59.325Z,5.93
2024-01-15T23:11:26.173Z,5.10
2024-01-15T23:13:53.982Z,5.10
2024-01-15T23:16:20.912Z,4.43
2024-01-15T23:18:47.737Z,4.75
2024-01-15T23:21:14.640Z,4.30
2024-01-15T23:23:41.516Z,3.92
2024-01-15T23:26:10.314Z,4.20
2024-01-15T23:28:38.369Z,4.10
2024-01-15T23:31:06.049Z,3.92
2024-01-15T23:33:33.488Z,4.00
2024-01-15T23:36:03.670Z,5.05
2024-01-15T23:38:30.564Z,5.97
2024-01-15T23:40:57.388Z,5.78
2024-01-15T23:43:24.118Z,5.65
2024-01-15T23:45:55.922Z,6.07
2024-01-15T23:48:26.559Z,7.10
2024-01-15T23:50:53.558Z,7.95
2024-01-15T23:53:20.441Z,5.80
2024-01-15T23:55:47.210Z,5.65
2024-01-15T23:58:13.937Z,5.88
